sensor_id;sensor_type;location;lat;lon;timestamp;pressure;altitude;pressure_sealevel;temperature;humidity
63665;BME280;49820;33.966;73.390;2023-04-29T02:07:37;78828.75;;;15.13;69.84
63665;BME280;49820;33.966;73.390;2023-04-29T02:10:12;78820.53;;;15.17;73.49
63665;BME280;49820;33.966;73.390;2023-04-29T02:12:45;78838.16;;;15.49;74.11
63665;BME280;49820;33.966;73.390;2023-04-29T02:15:15;78845.75;;;16.14;62.90
63665;BME280;49820;33.966;73.390;2023-04-29T02:17:45;78832.09;;;15.49;68.64
63665;BME280;49820;33.966;73.390;2023-04-29T02:20:14;78829.53;;;15.28;68.58
63665;BME280;49820;33.966;73.390;2023-04-29T02:22:44;78835.03;;;15.07;67.79
63665;BME280;49820;33.966;73.390;2023-04-29T02:25:13;78827.88;;;15.18;69.24
63665;BME280;49820;33.966;73.390;2023-04-29T02:27:42;78849.56;;;15.50;70.31
63665;BME280;49820;33.966;73.390;2023-04-29T02:30:12;78859.88;;;15.97;71.93
63665;BME280;49820;33.966;73.390;2023-04-29T02:32:41;78854.09;;;16.41;68.76
63665;BME280;49820;33.966;73.390;2023-04-29T02:35:13;78822.72;;;16.50;68.04
63665;BME280;49820;33.966;73.390;2023-04-29T02:37:43;78854.06;;;16.91;69.61
63665;BME280;49820;33.966;73.390;2023-04-29T02:40:12;78807.66;;;16.72;67.20
63665;BME280;49820;33.966;73.390;2023-04-29T02:42:41;78856.78;;;17.23;68.11
63665;BME280;49820;33.966;73.390;2023-04-29T02:45:10;78837.44;;;17.33;64.92
63665;BME280;49820;33.966;73.390;2023-04-29T02:47:40;78857.75;;;17.46;69.01
63665;BME280;49820;33.966;73.390;2023-04-29T02:50:10;78852.19;;;17.50;67.43
63665;BME280;49820;33.966;73.390;2023-04-29T02:52:39;78865.19;;;17.92;68.18
63665;BME280;49820;33.966;73.390;2023-04-29T02:55:09;78858.50;;;17.91;68.79
63665;BME280;49820;33.966;73.390;2023-04-29T02:57:39;78853.84;;;18.19;64.42
63665;BME280;49820;33.966;73.390;2023-04-29T03:00:09;78846.00;;;18.13;64.86
63665;BME280;49820;33.966;73.390;2023-04-29T03:02:39;78862.94;;;18.70;65.92
63665;BME280;49820;33.966;73.390;2023-04-29T03:05:09;78877.41;;;18.79;61.83
63665;BME280;49820;33.966;73.390;2023-04-29T03:07:38;78863.34;;;18.89;60.32
63665;BME280;49820;33.966;73.390;2023-04-29T03:10:08;78878.75;;;18.93;62.83
63665;BME280;49820;33.966;73.390;2023-04-29T03:12:37;78876.47;;;19.39;61.56
63665;BME280;49820;33.966;73.390;2023-04-29T03:15:07;78884.59;;;19.39;61.00
63665;BME280;49820;33.966;73.390;2023-04-29T03:17:37;78871.34;;;19.33;60.56
63665;BME280;49820;33.966;73.390;2023-04-29T03:20:08;78873.66;;;19.41;58.98
63665;BME280;49820;33.966;73.390;2023-04-29T03:22:39;78871.63;;;19.82;62.19
63665;BME280;49820;33.966;73.390;2023-04-29T03:25:09;78874.19;;;19.71;61.73
63665;BME280;49820;33.966;73.390;2023-04-29T03:27:39;78885.59;;;20.27;56.60
63665;BME280;49820;33.966;73.390;2023-04-29T03:30:10;78863.06;;;19.77;58.71
63665;BME280;49820;33.966;73.390;2023-04-29T03:32:46;78882.00;;;20.30;60.81
63665;BME280;49820;33.966;73.390;2023-04-29T03:35:15;78870.19;;;20.61;59.98
63665;BME280;49820;33.966;73.390;2023-04-29T03:38:08;78883.31;;;20.82;57.17
63665;BME280;49820;33.966;73.390;2023-04-29T03:40:39;78872.69;;;20.65;59.54
63665;BME280;49820;33.966;73.390;2023-04-29T03:43:08;78902.75;;;20.61;60.71
63665;BME280;49820;33.966;73.390;2023-04-29T03:45:37;78885.25;;;20.96;60.32
63665;BME280;49820;33.966;73.390;2023-04-29T03:48:07;78899.59;;;21.20;57.32
63665;BME280;49820;33.966;73.390;2023-04-29T03:50:37;78905.34;;;21.26;60.42
63665;BME280;49820;33.966;73.390;2023-04-29T03:53:08;78903.88;;;21.53;61.15
63665;BME280;49820;33.966;73.390;2023-04-29T03:55:38;78908.66;;;21.88;59.24
63665;BME280;49820;33.966;73.390;2023-04-29T03:58:09;78905.66;;;22.28;57.89
63665;BME280;49820;33.966;73.390;2023-04-29T04:00:39;78914.25;;;22.10;58.65
63665;BME280;49820;33.966;73.390;2023-04-29T04:03:14;78916.03;;;21.90;53.46
63665;BME280;49820;33.966;73.390;2023-04-29T04:05:44;78908.78;;;22.10;52.02
63665;BME280;49820;33.966;73.390;2023-04-29T04:08:15;78909.81;;;21.91;54.74
63665;BME280;49820;33.966;73.390;2023-04-29T04:10:54;78908.13;;;22.32;54.59
63665;BME280;49820;33.966;73.390;2023-04-29T04:13:41;78914.09;;;21.88;56.93
63665;BME280;49820;33.966;73.390;2023-04-29T04:16:11;78903.63;;;22.39;58.57
63665;BME280;49820;33.966;73.390;2023-04-29T04:18:41;78900.88;;;22.63;57.16
63665;BME280;49820;33.966;73.390;2023-04-29T04:21:11;78922.75;;;23.18;58.35
63665;BME280;49820;33.966;73.390;2023-04-29T04:23:44;78926.84;;;22.72;57.79
63665;BME280;49820;33.966;73.390;2023-04-29T04:26:19;78920.72;;;22.61;60.00
63665;BME280;49820;33.966;73.390;2023-04-29T04:28:51;78912.34;;;22.42;57.87
63665;BME280;49820;33.966;73.390;2023-04-29T04:31:35;78900.38;;;22.71;53.67
63665;BME280;49820;33.966;73.390;2023-04-29T04:34:04;78921.31;;;22.74;57.59
63665;BME280;49820;33.966;73.390;2023-04-29T04:36:34;78918.97;;;22.22;56.01
63665;BME280;49820;33.966;73.390;2023-04-29T04:39:07;78933.47;;;22.99;49.73
63665;BME280;49820;33.966;73.390;2023-04-29T04:41:38;78938.31;;;23.09;52.02
63665;BME280;49820;33.966;73.390;2023-04-29T04:44:07;78924.53;;;23.11;58.69
63665;BME280;49820;33.966;73.390;2023-04-29T04:47:03;78944.81;;;23.14;52.92
63665;BME280;49820;33.966;73.390;2023-04-29T04:49:59;78920.44;;;22.78;55.89
63665;BME280;49820;33.966;73.390;2023-04-29T04:52:30;78923.94;;;22.76;56.55
63665;BME280;49820;33.966;73.390;2023-04-29T04:55:09;78925.25;;;23.33;53.67
63665;BME280;49820;33.966;73.390;2023-04-29T04:57:45;78909.38;;;23.14;58.68
63665;BME280;49820;33.966;73.390;2023-04-29T05:00:14;78947.22;;;23.41;55.01
63665;BME280;49820;33.966;73.390;2023-04-29T05:02:44;78933.50;;;23.09;56.96
63665;BME280;49820;33.966;73.390;2023-04-29T05:05:13;78926.81;;;22.85;55.73
63665;BME280;49820;33.966;73.390;2023-04-29T05:07:43;78936.53;;;23.27;54.47
63665;BME280;49820;33.966;73.390;2023-04-29T05:10:14;78925.75;;;22.80;51.67
63665;BME280;49820;33.966;73.390;2023-04-29T05:12:48;78939.03;;;22.97;53.61
63665;BME280;49820;33.966;73.390;2023-04-29T05:15:18;78924.25;;;22.70;62.20
63665;BME280;49820;33.966;73.390;2023-04-29T05:17:51;78931.56;;;22.74;60.27
63665;BME280;49820;33.966;73.390;2023-04-29T05:20:20;78925.75;;;22.57;55.63
63665;BME280;49820;33.966;73.390;2023-04-29T05:22:50;78880.56;;;21.92;62.22
63665;BME280;49820;33.966;73.390;2023-04-29T05:25:19;78906.94;;;22.06;61.61
63665;BME280;49820;33.966;73.390;2023-04-29T05:27:49;78935.66;;;21.80;57.90
63665;BME280;49820;33.966;73.390;2023-04-29T05:30:20;78937.00;;;21.68;60.56
63665;BME280;49820;33.966;73.390;2023-04-29T05:32:49;78920.06;;;21.55;62.23
63665;BME280;49820;33.966;73.390;2023-04-29T05:35:20;78909.38;;;21.63;62.92
63665;BME280;49820;33.966;73.390;2023-04-29T05:37:50;78914.41;;;21.82;63.64
63665;BME280;49820;33.966;73.390;2023-04-29T05:40:55;78950.16;;;22.35;58.79
63665;BME280;49820;33.966;73.390;2023-04-29T05:43:47;78931.22;;;22.10;54.44
63665;BME280;49820;33.966;73.390;2023-04-29T05:46:16;78937.59;;;22.17;52.26
63665;BME280;49820;33.966;73.390;2023-04-29T05:48:46;78936.19;;;22.99;59.65
63665;BME280;49820;33.966;73.390;2023-04-29T05:51:15;78947.47;;;23.37;60.24
63665;BME280;49820;33.966;73.390;2023-04-29T05:53:44;78930.78;;;23.65;55.35
63665;BME280;49820;33.966;73.390;2023-04-29T05:56:13;78898.97;;;23.82;54.97
63665;BME280;49820;33.966;73.390;2023-04-29T05:58:44;78914.28;;;23.56;50.81
63665;BME280;49820;33.966;73.390;2023-04-29T06:01:13;78936.25;;;23.65;50.33
63665;BME280;49820;33.966;73.390;2023-04-29T06:03:44;78926.78;;;24.06;53.80
63665;BME280;49820;33.966;73.390;2023-04-29T06:06:40;78919.38;;;23.83;52.26
63665;BME280;49820;33.966;73.390;2023-04-29T06:09:16;78908.56;;;23.92;52.53
63665;BME280;49820;33.966;73.390;2023-04-29T06:11:58;78922.50;;;24.82;53.03
63665;BME280;49820;33.966;73.390;2023-04-29T06:14:27;78910.78;;;24.32;52.92
63665;BME280;49820;33.966;73.390;2023-04-29T06:16:56;78905.44;;;24.41;52.81
63665;BME280;49820;33.966;73.390;2023-04-29T06:19:25;78906.13;;;24.92;51.35
63665;BME280;49820;33.966;73.390;2023-04-29T06:21:54;78909.16;;;24.67;51.11
63665;BME280;49820;33.966;73.390;2023-04-29T06:24:24;78912.56;;;24.57;49.95
63665;BME280;49820;33.966;73.390;2023-04-29T06:26:53;78920.00;;;25.09;47.58
63665;BME280;49820;33.966;73.390;2023-04-29T06:29:24;78931.53;;;25.51;54.03
63665;BME280;49820;33.966;73.390;2023-04-29T06:31:54;78932.78;;;25.02;50.34
63665;BME280;49820;33.966;73.390;2023-04-29T06:34:24;78919.34;;;25.09;51.47
63665;BME280;49820;33.966;73.390;2023-04-29T06:37:11;78924.47;;;24.83;47.69
63665;BME280;49820;33.966;73.390;2023-04-29T06:39:58;78924.44;;;25.04;50.82
63665;BME280;49820;33.966;73.390;2023-04-29T06:42:41;78887.78;;;24.40;50.70
63665;BME280;49820;33.966;73.390;2023-04-29T06:45:40;78903.31;;;24.62;49.92
63665;BME280;49820;33.966;73.390;2023-04-29T06:48:19;78912.59;;;24.97;47.80
63665;BME280;49820;33.966;73.390;2023-04-29T06:50:56;78907.03;;;25.48;58.24
63665;BME280;49820;33.966;73.390;2023-04-29T06:53:26;78898.50;;;24.63;51.57
63665;BME280;49820;33.966;73.390;2023-04-29T06:55:56;78914.09;;;25.16;52.59
63665;BME280;49820;33.966;73.390;2023-04-29T06:58:25;78895.78;;;25.33;56.05
63665;BME280;49820;33.966;73.390;2023-04-29T07:00:54;78904.59;;;25.74;51.32
63665;BME280;49820;33.966;73.390;2023-04-29T07:03:23;78918.63;;;25.49;50.34
63665;BME280;49820;33.966;73.390;2023-04-29T07:05:53;78893.72;;;25.34;51.05
63665;BME280;49820;33.966;73.390;2023-04-29T07:08:22;78911.22;;;25.47;50.49
63665;BME280;49820;33.966;73.390;2023-04-29T07:10:56;78909.34;;;22.69;51.32
63665;BME280;49820;33.966;73.390;2023-04-29T07:13:25;78902.97;;;22.96;55.37
63665;BME280;49820;33.966;73.390;2023-04-29T07:15:55;78916.19;;;25.15;54.52
63665;BME280;49820;33.966;73.390;2023-04-29T07:18:24;78889.31;;;26.16;53.87
63665;BME280;49820;33.966;73.390;2023-04-29T07:21:00;78888.53;;;26.17;51.56
63665;BME280;49820;33.966;73.390;2023-04-29T07:23:29;78887.66;;;27.05;50.78
63665;BME280;49820;33.966;73.390;2023-04-29T07:26:12;78913.28;;;27.38;47.82
63665;BME280;49820;33.966;73.390;2023-04-29T07:28:44;78914.91;;;25.44;56.07
63665;BME280;49820;33.966;73.390;2023-04-29T07:31:14;78906.09;;;25.82;54.30
63665;BME280;49820;33.966;73.390;2023-04-29T07:33:44;78909.13;;;26.55;49.18
63665;BME280;49820;33.966;73.390;2023-04-29T07:36:16;78913.16;;;26.56;44.64
63665;BME280;49820;33.966;73.390;2023-04-29T07:38:45;78866.34;;;26.02;49.38
63665;BME280;49820;33.966;73.390;2023-04-29T07:41:15;78898.19;;;25.48;48.64
63665;BME280;49820;33.966;73.390;2023-04-29T07:43:45;78923.72;;;23.46;49.94
63665;BME280;49820;33.966;73.390;2023-04-29T07:46:14;78906.63;;;23.03;59.06
63665;BME280;49820;33.966;73.390;2023-04-29T07:48:46;78912.81;;;22.34;55.55
63665;BME280;49820;33.966;73.390;2023-04-29T07:51:15;78908.53;;;21.54;55.95
63665;BME280;49820;33.966;73.390;2023-04-29T07:53:44;78900.88;;;21.08;57.52
63665;BME280;49820;33.966;73.390;2023-04-29T07:56:14;78911.78;;;20.83;58.77
63665;BME280;49820;33.966;73.390;2023-04-29T07:58:44;78897.47;;;20.59;53.65
63665;BME280;49820;33.966;73.390;2023-04-29T08:01:15;78906.03;;;20.89;58.24
63665;BME280;49820;33.966;73.390;2023-04-29T08:03:44;78888.22;;;20.41;52.90
63665;BME280;49820;33.966;73.390;2023-04-29T08:06:17;78877.97;;;20.92;51.67
63665;BME280;49820;33.966;73.390;2023-04-29T08:08:48;78866.59;;;23.87;58.30
63665;BME280;49820;33.966;73.390;2023-04-29T08:11:19;78883.50;;;25.43;57.50
63665;BME280;49820;33.966;73.390;2023-04-29T08:13:48;78883.00;;;26.09;49.96
63665;BME280;49820;33.966;73.390;2023-04-29T08:16:18;78881.78;;;25.48;48.03
63665;BME280;49820;33.966;73.390;2023-04-29T08:18:49;78893.41;;;25.87;48.21
63665;BME280;49820;33.966;73.390;2023-04-29T08:21:19;78885.09;;;26.55;47.32
63665;BME280;49820;33.966;73.390;2023-04-29T08:23:48;78880.72;;;26.78;51.10
63665;BME280;49820;33.966;73.390;2023-04-29T08:26:17;78867.28;;;25.99;43.46
63665;BME280;49820;33.966;73.390;2023-04-29T08:28:51;78870.44;;;26.12;41.86
63665;BME280;49820;33.966;73.390;2023-04-29T08:31:21;78884.69;;;26.70;44.55
63665;BME280;49820;33.966;73.390;2023-04-29T08:33:50;78874.16;;;27.56;44.29
63665;BME280;49820;33.966;73.390;2023-04-29T08:36:20;78849.84;;;27.33;45.06
63665;BME280;49820;33.966;73.390;2023-04-29T08:38:50;78857.16;;;28.25;44.19
63665;BME280;49820;33.966;73.390;2023-04-29T08:41:20;78868.16;;;28.16;46.40
63665;BME280;49820;33.966;73.390;2023-04-29T08:43:51;78862.34;;;28.46;50.66
63665;BME280;49820;33.966;73.390;2023-04-29T08:46:20;78874.34;;;27.63;37.42
63665;BME280;49820;33.966;73.390;2023-04-29T08:48:52;78863.72;;;27.85;46.99
63665;BME280;49820;33.966;73.390;2023-04-29T08:51:22;78854.16;;;27.21;42.15
63665;BME280;49820;33.966;73.390;2023-04-29T08:53:52;78840.97;;;27.86;42.61
63665;BME280;49820;33.966;73.390;2023-04-29T08:56:21;78853.28;;;28.56;45.91
63665;BME280;49820;33.966;73.390;2023-04-29T08:58:52;78849.56;;;28.17;39.11
63665;BME280;49820;33.966;73.390;2023-04-29T09:01:28;78839.03;;;25.53;45.11
63665;BME280;49820;33.966;73.390;2023-04-29T09:07:04;78844.22;;;25.08;48.19
63665;BME280;49820;33.966;73.390;2023-04-29T09:09:35;78834.53;;;25.69;37.66
63665;BME280;49820;33.966;73.390;2023-04-29T09:12:05;78821.19;;;27.04;46.26
63665;BME280;49820;33.966;73.390;2023-04-29T09:14:35;78833.59;;;26.67;46.56
63665;BME280;49820;33.966;73.390;2023-04-29T09:17:04;78833.06;;;24.20;46.77
63665;BME280;49820;33.966;73.390;2023-04-29T09:19:35;78834.16;;;23.83;44.61
63665;BME280;49820;33.966;73.390;2023-04-29T09:22:05;78816.13;;;22.35;50.13
63665;BME280;49820;33.966;73.390;2023-04-29T09:24:36;78836.88;;;22.74;49.61
63665;BME280;49820;33.966;73.390;2023-04-29T09:27:07;78796.59;;;23.51;58.61
63665;BME280;49820;33.966;73.390;2023-04-29T09:29:36;78829.91;;;22.54;53.95
63665;BME280;49820;33.966;73.390;2023-04-29T09:32:19;78825.56;;;20.71;58.36
63665;BME280;49820;33.966;73.390;2023-04-29T09:34:49;78801.03;;;23.25;48.81
63665;BME280;49820;33.966;73.390;2023-04-29T09:37:26;78823.47;;;24.92;46.33
63665;BME280;49820;33.966;73.390;2023-04-29T09:39:55;78798.31;;;25.00;46.82
63665;BME280;49820;33.966;73.390;2023-04-29T09:42:25;78811.13;;;22.50;51.96
63665;BME280;49820;33.966;73.390;2023-04-29T09:44:55;78816.75;;;21.78;54.51
63665;BME280;49820;33.966;73.390;2023-04-29T09:47:29;78802.81;;;21.84;54.15
63665;BME280;49820;33.966;73.390;2023-04-29T09:50:11;78806.53;;;21.55;57.36
63665;BME280;49820;33.966;73.390;2023-04-29T09:52:45;78814.00;;;23.25;54.54
63665;BME280;49820;33.966;73.390;2023-04-29T09:55:15;78798.41;;;25.08;53.15
63665;BME280;49820;33.966;73.390;2023-04-29T09:57:45;78804.47;;;24.60;53.08
63665;BME280;49820;33.966;73.390;2023-04-29T10:00:15;78781.66;;;24.33;51.11
63665;BME280;49820;33.966;73.390;2023-04-29T10:02:47;78806.00;;;24.27;50.29
63665;BME280;49820;33.966;73.390;2023-04-29T10:05:18;78804.16;;;25.24;47.72
63665;BME280;49820;33.966;73.390;2023-04-29T10:07:48;78788.22;;;25.37;45.33
63665;BME280;49820;33.966;73.390;2023-04-29T10:10:19;78779.63;;;25.32;46.54
63665;BME280;49820;33.966;73.390;2023-04-29T10:12:52;78778.16;;;24.65;45.12
63665;BME280;49820;33.966;73.390;2023-04-29T10:15:27;78796.31;;;23.77;48.26
63665;BME280;49820;33.966;73.390;2023-04-29T10:20:36;78786.19;;;25.27;44.84
63665;BME280;49820;33.966;73.390;2023-04-29T10:23:10;78777.97;;;25.07;45.51
63665;BME280;49820;33.966;73.390;2023-04-29T10:25:43;78778.09;;;25.05;45.40
63665;BME280;49820;33.966;73.390;2023-04-29T10:28:14;78789.00;;;24.56;37.63
63665;BME280;49820;33.966;73.390;2023-04-29T10:30:49;78783.72;;;24.73;33.88
63665;BME280;49820;33.966;73.390;2023-04-29T10:33:20;78750.06;;;25.16;38.19
63665;BME280;49820;33.966;73.390;2023-04-29T10:35:50;78783.38;;;25.18;37.63
63665;BME280;49820;33.966;73.390;2023-04-29T10:38:27;78777.41;;;24.86;38.94
63665;BME280;49820;33.966;73.390;2023-04-29T10:40:59;78756.97;;;25.15;41.98
63665;BME280;49820;33.966;73.390;2023-04-29T10:43:32;78775.91;;;25.66;46.76
63665;BME280;49820;33.966;73.390;2023-04-29T10:46:18;78755.53;;;25.35;43.94
63665;BME280;49820;33.966;73.390;2023-04-29T10:48:50;78763.44;;;25.58;40.29
63665;BME280;49820;33.966;73.390;2023-04-29T10:51:42;78769.44;;;23.81;38.29
63665;BME280;49820;33.966;73.390;2023-04-29T10:54:13;78765.50;;;24.00;41.76
63665;BME280;49820;33.966;73.390;2023-04-29T10:59:14;78750.47;;;24.30;41.13
63665;BME280;49820;33.966;73.390;2023-04-29T11:01:53;78746.41;;;24.00;42.17
63665;BME280;49820;33.966;73.390;2023-04-29T11:04:22;78723.00;;;23.92;40.89
63665;BME280;49820;33.966;73.390;2023-04-29T11:06:56;78760.22;;;24.57;42.74
63665;BME280;49820;33.966;73.390;2023-04-29T11:09:30;78738.16;;;24.21;42.51
63665;BME280;49820;33.966;73.390;2023-04-29T11:12:04;78716.63;;;24.06;42.59
63665;BME280;49820;33.966;73.390;2023-04-29T11:14:36;78755.81;;;23.81;39.84
63665;BME280;49820;33.966;73.390;2023-04-29T11:17:15;78760.38;;;23.74;44.66
63665;BME280;49820;33.966;73.390;2023-04-29T11:19:46;78761.16;;;23.62;47.28
63665;BME280;49820;33.966;73.390;2023-04-29T11:24:52;78746.91;;;23.08;41.06
63665;BME280;49820;33.966;73.390;2023-04-29T11:27:24;78743.59;;;22.63;37.74
63665;BME280;49820;33.966;73.390;2023-04-29T11:29:55;78734.97;;;21.36;49.04
63665;BME280;49820;33.966;73.390;2023-04-29T11:32:31;78744.50;;;21.11;40.23
63665;BME280;49820;33.966;73.390;2023-04-29T11:35:14;78723.09;;;21.98;41.27
63665;BME280;49820;33.966;73.390;2023-04-29T11:37:45;78722.25;;;21.89;47.48
63665;BME280;49820;33.966;73.390;2023-04-29T11:40:15;78702.16;;;21.04;38.74
63665;BME280;49820;33.966;73.390;2023-04-29T11:42:48;78678.84;;;20.73;39.78
63665;BME280;49820;33.966;73.390;2023-04-29T11:45:18;78692.69;;;21.39;42.47
63665;BME280;49820;33.966;73.390;2023-04-29T11:47:49;78703.66;;;21.13;41.71
63665;BME280;49820;33.966;73.390;2023-04-29T11:50:22;78722.00;;;21.59;48.96
63665;BME280;49820;33.966;73.390;2023-04-29T11:52:51;78674.66;;;21.10;51.36
63665;BME280;49820;33.966;73.390;2023-04-29T11:55:20;78696.09;;;20.80;45.11
63665;BME280;49820;33.966;73.390;2023-04-29T11:57:49;78703.03;;;20.28;45.52
63665;BME280;49820;33.966;73.390;2023-04-29T12:00:20;78682.69;;;20.65;49.10
63665;BME280;49820;33.966;73.390;2023-04-29T12:02:48;78689.63;;;20.62;46.24
63665;BME280;49820;33.966;73.390;2023-04-29T12:05:19;78682.44;;;20.20;43.45
63665;BME280;49820;33.966;73.390;2023-04-29T12:07:49;78688.16;;;19.66;49.38
63665;BME280;49820;33.966;73.390;2023-04-29T12:10:19;78648.34;;;19.12;46.14
63665;BME280;49820;33.966;73.390;2023-04-29T12:12:49;78698.31;;;19.40;46.53
63665;BME280;49820;33.966;73.390;2023-04-29T12:15:18;78649.72;;;18.85;51.15
63665;BME280;49820;33.966;73.390;2023-04-29T12:17:47;78629.44;;;18.59;51.72
63665;BME280;49820;33.966;73.390;2023-04-29T12:20:17;78691.59;;;18.74;56.06
63665;BME280;49820;33.966;73.390;2023-04-29T12:22:46;78673.41;;;18.45;52.80
63665;BME280;49820;33.966;73.390;2023-04-29T12:25:16;78675.03;;;18.12;51.33
63665;BME280;49820;33.966;73.390;2023-04-29T12:27:47;78674.63;;;17.78;54.53
63665;BME280;49820;33.966;73.390;2023-04-29T12:30:19;78686.50;;;17.41;54.52
63665;BME280;49820;33.966;73.390;2023-04-29T12:32:51;78681.84;;;17.40;51.87
63665;BME280;49820;33.966;73.390;2023-04-29T12:35:20;78678.41;;;17.41;52.86
63665;BME280;49820;33.966;73.390;2023-04-29T12:37:50;78697.78;;;17.16;55.08
63665;BME280;49820;33.966;73.390;2023-04-29T12:40:19;78700.56;;;17.14;55.14
63665;BME280;49820;33.966;73.390;2023-04-29T12:42:49;78695.25;;;17.12;55.05
63665;BME280;49820;33.966;73.390;2023-04-29T12:45:44;78716.53;;;16.89;56.60
63665;BME280;49820;33.966;73.390;2023-04-29T12:48:16;78709.38;;;16.84;55.30
63665;BME280;49820;33.966;73.390;2023-04-29T12:50:56;78689.31;;;16.64;55.53
63665;BME280;49820;33.966;73.390;2023-04-29T12:53:29;78700.94;;;16.60;58.51
63665;BME280;49820;33.966;73.390;2023-04-29T12:55:59;78691.91;;;16.20;56.30
63665;BME280;49820;33.966;73.390;2023-04-29T12:58:28;78711.53;;;16.33;56.85
63665;BME280;49820;33.966;73.390;2023-04-29T13:00:59;78697.63;;;16.12;57.58
63665;BME280;49820;33.966;73.390;2023-04-29T13:03:29;78698.78;;;16.00;58.65
63665;BME280;49820;33.966;73.390;2023-04-29T13:06:00;78702.00;;;15.88;60.32
63665;BME280;49820;33.966;73.390;2023-04-29T13:08:31;78677.69;;;15.23;63.24
63665;BME280;49820;33.966;73.390;2023-04-29T13:11:00;78652.88;;;15.04;61.59
63665;BME280;49820;33.966;73.390;2023-04-29T13:13:29;78704.09;;;15.35;61.19
63665;BME280;49820;33.966;73.390;2023-04-29T13:15:59;78708.41;;;15.28;62.12
63665;BME280;49820;33.966;73.390;2023-04-29T13:18:29;78711.78;;;15.28;61.90
63665;BME280;49820;33.966;73.390;2023-04-29T13:21:02;78705.00;;;15.30;60.02
63665;BME280;49820;33.966;73.390;2023-04-29T13:23:32;78701.97;;;15.21;60.79
63665;BME280;49820;33.966;73.390;2023-04-29T13:26:02;78716.88;;;15.18;63.53
63665;BME280;49820;33.966;73.390;2023-04-29T13:28:31;78689.59;;;14.76;62.73
63665;BME280;49820;33.966;73.390;2023-04-29T13:31:01;78724.16;;;14.86;65.55
63665;BME280;49820;33.966;73.390;2023-04-29T13:33:30;78718.06;;;14.87;63.10
63665;BME280;49820;33.966;73.390;2023-04-29T13:35:59;78720.34;;;14.81;63.86
63665;BME280;49820;33.966;73.390;2023-04-29T13:38:30;78713.28;;;14.71;63.10
63665;BME280;49820;33.966;73.390;2023-04-29T13:41:00;78707.06;;;14.58;63.75
63665;BME280;49820;33.966;73.390;2023-04-29T13:43:35;78683.25;;;14.29;64.59
63665;BME280;49820;33.966;73.390;2023-04-29T13:46:07;78707.59;;;14.44;64.13
63665;BME280;49820;33.966;73.390;2023-04-29T13:48:38;78718.19;;;14.29;64.60
63665;BME280;49820;33.966;73.390;2023-04-29T13:51:10;78703.66;;;14.22;64.62
63665;BME280;49820;33.966;73.390;2023-04-29T13:53:42;78718.59;;;14.36;63.26
63665;BME280;49820;33.966;73.390;2023-04-29T13:56:31;78707.88;;;14.17;63.93
63665;BME280;49820;33.966;73.390;2023-04-29T13:59:07;78711.00;;;14.24;64.40
63665;BME280;49820;33.966;73.390;2023-04-29T14:01:49;78718.34;;;14.25;64.09
63665;BME280;49820;33.966;73.390;2023-04-29T14:04:38;78713.53;;;14.09;63.14
63665;BME280;49820;33.966;73.390;2023-04-29T14:07:08;78739.53;;;14.33;63.46
63665;BME280;49820;33.966;73.390;2023-04-29T14:09:37;78736.50;;;14.25;63.91
63665;BME280;49820;33.966;73.390;2023-04-29T14:12:07;78728.13;;;14.14;64.20
63665;BME280;49820;33.966;73.390;2023-04-29T14:14:36;78729.50;;;13.94;64.97
63665;BME280;49820;33.966;73.390;2023-04-29T14:17:06;78732.53;;;13.84;66.67
63665;BME280;49820;33.966;73.390;2023-04-29T14:19:35;78745.81;;;13.88;68.19
63665;BME280;49820;33.966;73.390;2023-04-29T14:22:04;78730.25;;;13.72;68.59
63665;BME280;49820;33.966;73.390;2023-04-29T14:24:33;78747.56;;;13.77;69.94
63665;BME280;49820;33.966;73.390;2023-04-29T14:27:02;78743.19;;;13.67;69.74
63665;BME280;49820;33.966;73.390;2023-04-29T14:29:33;78738.00;;;13.61;70.28
63665;BME280;49820;33.966;73.390;2023-04-29T14:32:02;78755.72;;;13.73;69.88
63665;BME280;49820;33.966;73.390;2023-04-29T14:34:33;78739.50;;;13.56;70.52
63665;BME280;49820;33.966;73.390;2023-04-29T14:37:04;78735.13;;;13.47;72.05
63665;BME280;49820;33.966;73.390;2023-04-29T14:39:33;78708.38;;;13.24;72.70
63665;BME280;49820;33.966;73.390;2023-04-29T14:42:02;78739.94;;;13.44;72.78
63665;BME280;49820;33.966;73.390;2023-04-29T14:44:32;78747.06;;;13.52;73.00
63665;BME280;49820;33.966;73.390;2023-04-29T14:47:01;78739.06;;;13.50;72.98
63665;BME280;49820;33.966;73.390;2023-04-29T14:49:30;78742.41;;;13.50;72.80
63665;BME280;49820;33.966;73.390;2023-04-29T14:51:59;78718.13;;;13.33;72.96
63665;BME280;49820;33.966;73.390;2023-04-29T14:54:29;78715.47;;;13.33;73.34
63665;BME280;49820;33.966;73.390;2023-04-29T14:56:59;78741.31;;;13.43;72.72
63665;BME280;49820;33.966;73.390;2023-04-29T14:59:28;78723.44;;;13.35;72.78
63665;BME280;49820;33.966;73.390;2023-04-29T15:01:58;78721.75;;;13.26;73.40
63665;BME280;49820;33.966;73.390;2023-04-29T15:04:28;78729.66;;;13.30;73.82
63665;BME280;49820;33.966;73.390;2023-04-29T15:06:58;78724.09;;;13.36;72.15
63665;BME280;49820;33.966;73.390;2023-04-29T15:09:27;78738.56;;;13.45;72.90
63665;BME280;49820;33.966;73.390;2023-04-29T15:11:56;78715.22;;;13.21;72.96
63665;BME280;49820;33.966;73.390;2023-04-29T15:14:26;78731.16;;;13.25;74.41
63665;BME280;49820;33.966;73.390;2023-04-29T15:16:55;78735.88;;;13.24;74.97
63665;BME280;49820;33.966;73.390;2023-04-29T15:19:25;78742.44;;;13.29;74.74
63665;BME280;49820;33.966;73.390;2023-04-29T15:21:55;78737.91;;;13.24;74.68
63665;BME280;49820;33.966;73.390;2023-04-29T15:24:25;78715.56;;;13.09;74.36
63665;BME280;49820;33.966;73.390;2023-04-29T15:26:54;78751.03;;;13.32;74.99
63665;BME280;49820;33.966;73.390;2023-04-29T15:29:23;78730.34;;;13.08;75.87
63665;BME280;49820;33.966;73.390;2023-04-29T15:31:52;78749.00;;;13.12;75.85